Terminal Aerodrome Forecast
Issued by NWS

Home | Current Version | Previous Version | Text Only | Print | Product List | Glossary Off
Versions: 1 2 3 4 5 6 7 8 9 10 11 12 13 14 15 16 17 18 19 20 21 22 23 24 25 26

000
FTUS43 KLOT 280303 AAA
TAFORD
TAF AMD
KORD 280303Z 2803/0106 14009KT P6SM SCT050 BKN120 OVC250
     FM280700 16008KT 4SM -SHRA SCT015 BKN025
     FM281100 17011KT 4SM -RADZ BR OVC007
     FM281500 19011G17KT P6SM SCT008 BKN015
     FM282000 19012G20KT P6SM VCSH BKN020 PROB30 2822/2824 4SM -TSRA
      BKN015CB
     FM010100 20012G20KT 4SM -TSRA BR BKN012CB OVC025
      TEMPO 0102/0106 2SM TSRA BR BKN008CB=

USA.gov is the U.S. government's official web portal to all federal, state and local government web resources and services.